首页
METAR-TAF:

METAR-TAF

机场 :

Iowa City Municipal Airport

艾奥瓦城, 艾奥瓦州, 美国

纬度: 41-37-58N, 经度: 091-32-35W, 海拔: 203米

当前天气观测

该预报发布于52分钟前的05:52 UTC
风速3节,风向南转西南
温度 18°C
湿度 83%
气压 1009 hPa
能見度: 16.1公里
天空无云

METAR: KIOW 250552Z AUTO 21003KT 10SM CLR 18/15 A2979 RMK AO2 SLP086 T01830150 10239 20172 402500172 51006 $

时间: 01:44 (06:44 UTC)


TAF: 丢失

超过4000个机场的气象观测和天气预报(METAR&TAF报告)。

可查询的气象台以黄色和红色小点在地图上表示。

将鼠标移到小点上方,可查看气象台名称。

然后点击查看天气观测和预报。

如需切换地图:点击带黑十字的绿色按钮放大地图;点击带横线的绿色按钮缩小地图;或者点击绿色箭头查看邻近地区的地图。


METAR-TAF: